createdAt,value
2023-08-22T00:00:06.643Z,99.30
2023-08-22T00:00:16.637Z,99.61
2023-08-22T00:00:26.688Z,99.71
2023-08-22T00:00:36.649Z,99.71
2023-08-22T00:00:46.691Z,99.81
2023-08-22T00:00:56.716Z,99.91
2023-08-22T00:01:06.673Z,99.99
2023-08-22T00:01:16.660Z,99.99
2023-08-22T00:01:36.648Z,99.99
2023-08-22T00:01:46.641Z,99.99
2023-08-22T00:01:56.664Z,99.99
2023-08-22T00:02:06.658Z,99.99
2023-08-22T00:02:16.641Z,99.99
2023-08-22T00:02:26.670Z,99.99
2023-08-22T00:02:46.659Z,99.99
2023-08-22T00:02:56.723Z,99.99
2023-08-22T00:03:06.747Z,99.99
2023-08-22T00:03:16.774Z,99.99
2023-08-22T00:03:26.697Z,99.99
2023-08-22T00:03:36.694Z,99.99
2023-08-22T00:03:56.697Z,99.99
2023-08-22T00:04:06.677Z,99.99
2023-08-22T00:04:16.667Z,99.99
2023-08-22T00:04:26.662Z,99.99
2023-08-22T00:04:36.660Z,99.99
2023-08-22T00:04:46.654Z,99.99
2023-08-22T00:04:56.680Z,99.99
2023-08-22T00:05:06.661Z,99.99
2023-08-22T00:05:16.653Z,99.99
2023-08-22T00:05:26.655Z,99.99
2023-08-22T00:05:36.653Z,99.99
2023-08-22T00:05:46.658Z,99.99
2023-08-22T00:06:06.673Z,99.99
2023-08-22T00:06:16.663Z,99.99
2023-08-22T00:06:26.655Z,99.99
2023-08-22T00:06:36.674Z,99.99
2023-08-22T00:06:46.662Z,99.99
2023-08-22T00:06:56.663Z,99.99
2023-08-22T00:07:06.666Z,99.99
2023-08-22T00:07:16.659Z,99.99
2023-08-22T00:07:26.663Z,99.99
2023-08-22T00:07:46.659Z,99.99
2023-08-22T00:07:56.697Z,99.99
2023-08-22T00:08:06.923Z,99.99
2023-08-22T00:08:16.662Z,99.99
2023-08-22T00:08:26.671Z,99.99
2023-08-22T00:08:36.665Z,99.99
2023-08-22T00:08:46.668Z,99.99
2023-08-22T00:08:56.688Z,99.99
2023-08-22T00:09:06.682Z,99.99
2023-08-22T00:09:16.678Z,99.99
2023-08-22T00:09:26.678Z,99.99
2023-08-22T00:09:36.683Z,99.99
2023-08-22T00:09:46.673Z,99.99
2023-08-22T00:09:56.657Z,99.99
2023-08-22T00:10:16.676Z,99.99
2023-08-22T00:10:26.669Z,99.99
2023-08-22T00:10:36.683Z,99.99
2023-08-22T00:10:46.693Z,99.99
2023-08-22T00:10:59.973Z,99.99
2023-08-22T00:11:06.670Z,99.99
2023-08-22T00:11:16.681Z,99.99
2023-08-22T00:11:26.679Z,99.99
2023-08-22T00:11:36.692Z,99.99
2023-08-22T00:11:46.681Z,99.99
2023-08-22T00:11:56.682Z,99.99
2023-08-22T00:12:06.677Z,99.99
2023-08-22T00:12:26.679Z,99.99
2023-08-22T00:12:36.703Z,99.99
2023-08-22T00:12:46.687Z,99.99
2023-08-22T00:12:56.676Z,99.99
2023-08-22T00:13:06.677Z,99.99
2023-08-22T00:13:16.693Z,99.99
2023-08-22T00:13:26.690Z,99.99
2023-08-22T00:13:46.694Z,99.99
2023-08-22T00:13:56.684Z,99.99
2023-08-22T00:14:06.684Z,99.99
2023-08-22T00:14:16.697Z,99.99
2023-08-22T00:14:26.698Z,99.99
2023-08-22T00:14:36.687Z,99.99
2023-08-22T00:14:46.691Z,99.99
2023-08-22T00:14:56.676Z,99.99
2023-08-22T00:15:06.707Z,99.99
2023-08-22T00:15:16.680Z,99.99
2023-08-22T00:15:26.778Z,99.99
2023-08-22T00:15:36.796Z,99.99
2023-08-22T00:15:46.732Z,99.99
2023-08-22T00:15:56.762Z,99.99
2023-08-22T00:16:16.775Z,99.99
2023-08-22T00:16:26.701Z,99.99
2023-08-22T00:16:36.713Z,99.99
2023-08-22T00:16:46.710Z,99.99
2023-08-22T00:16:56.700Z,99.99
2023-08-22T00:17:06.697Z,99.99
2023-08-22T00:17:26.706Z,99.99
2023-08-22T00:17:36.697Z,99.99
2023-08-22T00:17:46.713Z,99.99
2023-08-22T00:17:56.809Z,99.99
2023-08-22T00:18:06.757Z,99.99
2023-08-22T00:18:16.732Z,99.99
2023-08-22T00:18:26.718Z,99.99
2023-08-22T00:18:36.707Z,99.99
2023-08-22T00:18:46.709Z,99.99
2023-08-22T00:19:06.718Z,99.99
2023-08-22T00:19:16.713Z,99.99
2023-08-22T00:19:28.226Z,99.99
2023-08-22T00:19:36.708Z,99.99
2023-08-22T00:19:46.736Z,99.99
2023-08-22T00:19:56.723Z,99.99
2023-08-22T00:20:06.717Z,99.99
2023-08-22T00:20:16.711Z,99.99
2023-08-22T00:20:26.720Z,99.99
2023-08-22T00:20:36.712Z,99.99
2023-08-22T00:20:46.716Z,99.99
2023-08-22T00:20:56.719Z,99.99
2023-08-22T00:21:06.732Z,99.99
2023-08-22T00:21:16.743Z,99.99
2023-08-22T00:21:26.721Z,99.99
2023-08-22T00:21:36.721Z,99.99
2023-08-22T00:21:46.719Z,99.99
2023-08-22T00:21:56.711Z,99.99
2023-08-22T00:22:06.721Z,99.99
2023-08-22T00:22:26.719Z,99.99
2023-08-22T00:22:36.730Z,99.99
2023-08-22T00:22:46.716Z,99.99
2023-08-22T00:22:56.735Z,99.99
2023-08-22T00:23:06.739Z,99.99
2023-08-22T00:23:16.728Z,99.99
2023-08-22T00:23:26.721Z,99.99
2023-08-22T00:23:36.732Z,99.99
2023-08-22T00:23:46.717Z,99.99
2023-08-22T00:23:56.720Z,99.99
2023-08-22T00:24:16.723Z,99.99
2023-08-22T00:24:26.726Z,99.99
2023-08-22T00:24:36.749Z,99.99
2023-08-22T00:24:46.726Z,99.99
2023-08-22T00:24:56.728Z,99.99
2023-08-22T00:25:06.741Z,99.99
2023-08-22T00:25:16.729Z,99.99
2023-08-22T00:25:26.732Z,99.99
2023-08-22T00:25:36.730Z,99.99
2023-08-22T00:25:46.730Z,99.99
2023-08-22T00:25:56.729Z,99.99
2023-08-22T00:26:06.739Z,99.99
2023-08-22T00:26:16.768Z,99.99
2023-08-22T00:26:26.743Z,99.99
2023-08-22T00:26:36.761Z,99.99
2023-08-22T00:26:46.726Z,99.99
2023-08-22T00:26:56.730Z,99.99
2023-08-22T00:27:06.745Z,99.99
2023-08-22T00:27:26.739Z,99.99
2023-08-22T00:27:36.773Z,99.99
2023-08-22T00:27:46.745Z,99.99
2023-08-22T00:27:56.747Z,99.99
2023-08-22T00:28:06.745Z,99.99
2023-08-22T00:28:16.737Z,99.99
2023-08-22T00:28:26.749Z,99.99
2023-08-22T00:28:46.739Z,99.99
2023-08-22T00:28:56.737Z,99.99
2023-08-22T00:29:06.741Z,99.99
2023-08-22T00:29:16.745Z,99.99
2023-08-22T00:29:26.745Z,99.99
2023-08-22T00:29:36.741Z,99.99
2023-08-22T00:29:46.748Z,99.99
2023-08-22T00:29:56.778Z,99.99
2023-08-22T00:30:06.749Z,99.99
2023-08-22T00:30:16.747Z,99.99
2023-08-22T00:30:26.745Z,99.99
2023-08-22T00:30:36.776Z,99.99
2023-08-22T00:30:46.807Z,99.99
2023-08-22T00:31:06.783Z,99.99
2023-08-22T00:31:16.826Z,99.99
2023-08-22T00:31:26.769Z,99.99
2023-08-22T00:31:36.756Z,99.99
2023-08-22T00:31:46.751Z,99.99
2023-08-22T00:31:56.761Z,99.99
2023-08-22T00:32:06.763Z,99.99
2023-08-22T00:32:26.791Z,99.99
2023-08-22T00:32:36.846Z,99.99
2023-08-22T00:32:46.817Z,99.99
2023-08-22T00:32:56.815Z,99.99
2023-08-22T00:33:06.813Z,99.99
2023-08-22T00:33:16.791Z,99.99
2023-08-22T00:33:36.762Z,99.99
2023-08-22T00:33:46.758Z,99.99
2023-08-22T00:33:56.760Z,99.99
2023-08-22T00:34:06.765Z,99.99
2023-08-22T00:34:16.757Z,99.99
2023-08-22T00:34:26.790Z,99.99
2023-08-22T00:34:36.766Z,99.99
2023-08-22T00:34:46.774Z,99.99
2023-08-22T00:34:56.776Z,99.99
2023-08-22T00:35:06.768Z,99.99
2023-08-22T00:35:16.767Z,99.99
2023-08-22T00:35:26.769Z,99.99
2023-08-22T00:35:36.784Z,99.99
2023-08-22T00:35:46.767Z,99.99
2023-08-22T00:35:56.784Z,99.99
2023-08-22T00:36:06.772Z,99.99
2023-08-22T00:36:16.791Z,99.99
2023-08-22T00:36:26.781Z,99.99
2023-08-22T00:36:46.770Z,99.99
2023-08-22T00:36:56.775Z,99.99
2023-08-22T00:37:06.776Z,99.99
2023-08-22T00:37:16.794Z,99.99
2023-08-22T00:37:26.779Z,99.99
2023-08-22T00:37:36.777Z,99.99
2023-08-22T00:37:46.785Z,99.99
2023-08-22T00:38:06.788Z,99.82
2023-08-22T00:38:16.795Z,99.82
2023-08-22T00:38:26.789Z,99.72
2023-08-22T00:38:36.784Z,99.72
2023-08-22T00:38:46.781Z,99.62
2023-08-22T00:38:56.789Z,99.62
2023-08-22T00:39:06.784Z,99.62
2023-08-22T00:39:16.812Z,99.62
2023-08-22T00:39:26.799Z,99.62
2023-08-22T00:39:36.786Z,99.62
2023-08-22T00:39:46.800Z,99.72
2023-08-22T00:39:56.800Z,99.72
2023-08-22T00:40:06.785Z,99.72
2023-08-22T00:40:26.796Z,99.62
2023-08-22T00:40:36.789Z,99.62
2023-08-22T00:40:46.791Z,99.52
2023-08-22T00:40:56.786Z,99.52
2023-08-22T00:41:06.793Z,99.52
2023-08-22T00:41:16.799Z,99.52
2023-08-22T00:41:36.789Z,99.52
2023-08-22T00:41:46.802Z,99.41
2023-08-22T00:41:56.790Z,99.37
2023-08-22T00:42:06.794Z,99.37
2023-08-22T00:42:16.793Z,99.27
2023-08-22T00:42:26.796Z,99.27
2023-08-22T00:42:36.824Z,99.16
2023-08-22T00:42:46.798Z,99.16
2023-08-22T00:42:56.810Z,99.16
2023-08-22T00:43:06.800Z,99.16
2023-08-22T00:43:16.818Z,99.16
2023-08-22T00:43:26.803Z,99.16
2023-08-22T00:43:36.816Z,99.07
2023-08-22T00:43:46.806Z,99.07
2023-08-22T00:43:56.803Z,99.07
2023-08-22T00:44:06.803Z,98.96
2023-08-22T00:44:16.806Z,99.07
2023-08-22T00:44:26.809Z,99.07
2023-08-22T00:44:46.817Z,98.96
2023-08-22T00:44:56.801Z,98.96
2023-08-22T00:45:06.856Z,98.86
2023-08-22T00:45:16.805Z,98.86
2023-08-22T00:45:26.807Z,98.76
2023-08-22T00:45:36.811Z,98.66
2023-08-22T00:45:56.804Z,98.66
2023-08-22T00:46:06.863Z,98.56
2023-08-22T00:46:16.845Z,98.56
2023-08-22T00:46:26.832Z,98.56
2023-08-22T00:46:36.854Z,98.56
2023-08-22T00:46:46.864Z,98.56
2023-08-22T00:46:56.811Z,98.56
2023-08-22T00:47:06.811Z,98.46
2023-08-22T00:47:26.862Z,98.46
2023-08-22T00:47:36.880Z,98.36
2023-08-22T00:47:46.862Z,98.36
2023-08-22T00:47:56.832Z,98.25
2023-08-22T00:48:06.847Z,98.16
2023-08-22T00:48:16.872Z,98.16
2023-08-22T00:48:26.813Z,98.01
2023-08-22T00:48:46.813Z,97.71
2023-08-22T00:48:56.821Z,97.71
2023-08-22T00:49:06.827Z,97.60
2023-08-22T00:49:16.838Z,97.50
2023-08-22T00:49:26.824Z,97.40
2023-08-22T00:49:36.823Z,97.30
2023-08-22T00:49:46.821Z,97.30
2023-08-22T00:49:57.828Z,97.30
2023-08-22T00:50:06.827Z,97.20
2023-08-22T00:50:16.829Z,97.20
2023-08-22T00:50:26.828Z,97.20
2023-08-22T00:50:36.833Z,97.10
2023-08-22T00:50:46.853Z,97.10
2023-08-22T00:51:06.823Z,97.00
2023-08-22T00:51:16.822Z,97.00
2023-08-22T00:51:26.831Z,97.00
2023-08-22T00:51:36.851Z,97.00
2023-08-22T00:51:46.825Z,97.00
2023-08-22T00:51:56.823Z,97.00
2023-08-22T00:52:06.836Z,97.00
2023-08-22T00:52:16.837Z,97.00
2023-08-22T00:52:26.828Z,97.00
2023-08-22T00:52:36.824Z,97.00
2023-08-22T00:52:46.833Z,97.00
2023-08-22T00:52:56.854Z,97.00
2023-08-22T00:53:06.843Z,97.00
2023-08-22T00:53:26.853Z,96.89
2023-08-22T00:53:36.844Z,96.89
2023-08-22T00:53:46.837Z,96.89
2023-08-22T00:53:56.852Z,96.80
2023-08-22T00:54:06.833Z,96.80
2023-08-22T00:54:16.843Z,96.80
2023-08-22T00:54:26.845Z,96.80
2023-08-22T00:54:36.857Z,96.89
2023-08-22T00:54:46.835Z,96.89
2023-08-22T00:54:56.851Z,97.00
2023-08-22T00:55:06.852Z,97.10
2023-08-22T00:55:16.852Z,97.10
2023-08-22T00:55:26.845Z,97.10
2023-08-22T00:55:46.879Z,97.10
2023-08-22T00:55:56.848Z,97.00
2023-08-22T00:56:06.844Z,97.00
2023-08-22T00:56:16.859Z,96.89
2023-08-22T00:56:26.851Z,96.89
2023-08-22T00:56:36.844Z,96.89
2023-08-22T00:56:46.852Z,96.89
2023-08-22T00:56:56.845Z,96.89
2023-08-22T00:57:06.850Z,97.00
2023-08-22T00:57:16.852Z,97.10
2023-08-22T00:57:26.860Z,97.20
2023-08-22T00:57:36.853Z,97.20
2023-08-22T00:57:46.856Z,97.30
2023-08-22T00:57:56.852Z,97.34
2023-08-22T00:58:06.874Z,97.25
2023-08-22T00:58:16.861Z,97.25
2023-08-22T00:58:26.854Z,97.25
2023-08-22T00:58:36.863Z,97.25
2023-08-22T00:58:46.861Z,97.14
2023-08-22T00:58:56.878Z,97.05
2023-08-22T00:59:06.863Z,97.05
2023-08-22T00:59:16.853Z,96.94
2023-08-22T00:59:26.858Z,96.94
2023-08-22T00:59:36.870Z,96.94
2023-08-22T00:59:56.881Z,97.05
2023-08-22T01:00:06.872Z,97.05
2023-08-22T01:00:16.888Z,97.05
2023-08-22T01:00:26.912Z,97.14
2023-08-22T01:00:36.902Z,97.25
2023-08-22T01:00:46.882Z,97.45
2023-08-22T01:00:56.898Z,97.45
2023-08-22T01:01:06.916Z,97.55
2023-08-22T01:01:26.902Z,97.65
2023-08-22T01:01:36.874Z,97.65
2023-08-22T01:01:46.869Z,97.65
2023-08-22T01:01:56.883Z,97.65
2023-08-22T01:02:06.883Z,97.65
2023-08-22T01:02:16.943Z,97.65
2023-08-22T01:02:36.968Z,97.65
2023-08-22T01:02:46.940Z,97.65
2023-08-22T01:02:56.932Z,97.65
2023-08-22T01:03:06.996Z,97.55
2023-08-22T01:03:20.209Z,97.55
2023-08-22T01:03:26.911Z,97.65
2023-08-22T01:03:46.996Z,97.55
2023-08-22T01:03:56.903Z,97.65
2023-08-22T01:04:06.899Z,97.65
2023-08-22T01:04:16.886Z,97.65
2023-08-22T01:04:26.880Z,97.65
2023-08-22T01:04:36.897Z,97.65
2023-08-22T01:04:46.891Z,97.65
2023-08-22T01:04:56.894Z,97.55
2023-08-22T01:05:16.884Z,97.55
2023-08-22T01:05:26.881Z,97.65
2023-08-22T01:05:36.891Z,97.75
2023-08-22T01:05:46.888Z,97.75
2023-08-22T01:05:56.881Z,97.75
2023-08-22T01:06:06.898Z,97.75
2023-08-22T01:06:16.885Z,97.75
2023-08-22T01:06:26.885Z,97.75
2023-08-22T01:06:36.915Z,97.75
2023-08-22T01:06:46.895Z,97.85
2023-08-22T01:07:06.897Z,97.96
2023-08-22T01:07:16.912Z,98.05
2023-08-22T01:07:26.896Z,98.16
2023-08-22T01:07:36.890Z,98.25
2023-08-22T01:07:46.892Z,98.36
2023-08-22T01:07:56.891Z,98.46
2023-08-22T01:08:06.890Z,98.46
2023-08-22T01:08:26.900Z,98.66
2023-08-22T01:08:36.896Z,98.66
2023-08-22T01:08:46.927Z,98.66
2023-08-22T01:08:56.898Z,98.66
2023-08-22T01:09:06.898Z,98.76
2023-08-22T01:09:16.904Z,98.76
2023-08-22T01:09:26.900Z,98.66
2023-08-22T01:09:36.917Z,98.66
2023-08-22T01:09:46.917Z,98.56
2023-08-22T01:09:56.897Z,98.56
2023-08-22T01:10:06.896Z,98.56
2023-08-22T01:10:16.904Z,98.61
2023-08-22T01:10:26.894Z,98.61
2023-08-22T01:10:36.907Z,98.61
2023-08-22T01:10:46.924Z,98.61
2023-08-22T01:10:56.909Z,98.61
2023-08-22T01:11:06.903Z,98.61
2023-08-22T01:11:16.911Z,98.61
2023-08-22T01:11:26.911Z,98.61
2023-08-22T01:11:36.911Z,98.71
2023-08-22T01:11:46.908Z,98.71
2023-08-22T01:11:56.914Z,98.81
2023-08-22T01:12:06.926Z,99.01
2023-08-22T01:12:16.914Z,99.21
2023-08-22T01:12:26.914Z,99.32
2023-08-22T01:12:46.910Z,99.41
2023-08-22T01:12:56.909Z,99.32
2023-08-22T01:13:06.907Z,99.32
2023-08-22T01:13:16.914Z,99.32
2023-08-22T01:13:26.935Z,99.32
2023-08-22T01:13:36.915Z,99.41
2023-08-22T01:13:46.933Z,99.41
2023-08-22T01:13:56.936Z,99.32
2023-08-22T01:14:06.917Z,99.32
2023-08-22T01:14:16.920Z,99.32
2023-08-22T01:14:26.936Z,99.41
2023-08-22T01:14:36.917Z,99.52
2023-08-22T01:14:56.936Z,99.62
2023-08-22T01:15:07.005Z,99.72
2023-08-22T01:15:16.927Z,99.72
2023-08-22T01:15:26.934Z,99.82
2023-08-22T01:15:36.929Z,99.82
2023-08-22T01:15:46.946Z,99.82
2023-08-22T01:15:56.958Z,99.82
2023-08-22T01:16:06.933Z,99.92
2023-08-22T01:16:16.931Z,99.99
2023-08-22T01:16:36.948Z,99.99
2023-08-22T01:16:46.985Z,99.99
2023-08-22T01:16:56.959Z,99.99
2023-08-22T01:17:06.947Z,99.99
2023-08-22T01:17:16.931Z,99.99
2023-08-22T01:17:26.973Z,99.99
2023-08-22T01:17:46.994Z,99.99
2023-08-22T01:17:56.959Z,99.99
2023-08-22T01:18:06.984Z,99.99
2023-08-22T01:18:16.972Z,99.99
2023-08-22T01:18:26.946Z,99.99
2023-08-22T01:18:36.937Z,99.99
2023-08-22T01:18:46.948Z,99.99
2023-08-22T01:18:56.946Z,99.99
2023-08-22T01:19:06.939Z,99.99
2023-08-22T01:19:26.948Z,99.99
2023-08-22T01:19:36.940Z,99.99
2023-08-22T01:19:46.945Z,99.99
2023-08-22T01:19:56.944Z,99.99
2023-08-22T01:20:06.944Z,99.99
2023-08-22T01:20:16.944Z,99.99
2023-08-22T01:20:26.948Z,99.99
2023-08-22T01:20:36.967Z,99.99
2023-08-22T01:20:46.956Z,99.99
2023-08-22T01:20:56.959Z,99.99
2023-08-22T01:21:07.001Z,99.99
2023-08-22T01:21:16.947Z,99.99
2023-08-22T01:21:26.952Z,99.92
2023-08-22T01:21:36.981Z,99.92
2023-08-22T01:21:46.949Z,99.92
2023-08-22T01:21:56.949Z,99.82
2023-08-22T01:22:06.967Z,99.82
2023-08-22T01:22:16.962Z,99.82
2023-08-22T01:22:36.955Z,99.82
2023-08-22T01:22:46.952Z,99.82
2023-08-22T01:22:56.986Z,99.82
2023-08-22T01:23:06.957Z,99.82
2023-08-22T01:23:16.952Z,99.82
2023-08-22T01:23:26.964Z,99.82
2023-08-22T01:23:36.964Z,99.82
2023-08-22T01:23:46.969Z,99.82
2023-08-22T01:24:06.960Z,99.92
2023-08-22T01:24:16.960Z,99.92
2023-08-22T01:24:26.961Z,99.92
2023-08-22T01:24:36.964Z,99.99
2023-08-22T01:24:46.961Z,99.99
2023-08-22T01:24:56.988Z,99.99
2023-08-22T01:25:06.974Z,99.99
2023-08-22T01:25:16.982Z,99.99
2023-08-22T01:25:26.961Z,99.99
2023-08-22T01:25:36.971Z,99.99
2023-08-22T01:25:46.972Z,99.92
2023-08-22T01:25:57.002Z,99.92
2023-08-22T01:26:06.965Z,99.92
2023-08-22T01:26:16.969Z,99.92
2023-08-22T01:26:26.973Z,99.92
2023-08-22T01:26:37.013Z,99.92
2023-08-22T01:26:46.972Z,99.92
2023-08-22T01:26:56.990Z,99.92
2023-08-22T01:27:06.971Z,99.92
2023-08-22T01:27:16.971Z,99.99
2023-08-22T01:27:26.972Z,99.99
2023-08-22T01:27:46.988Z,99.92
2023-08-22T01:27:57.000Z,99.92
2023-08-22T01:28:06.988Z,99.77
2023-08-22T01:28:16.988Z,99.77
2023-08-22T01:28:26.986Z,99.77
2023-08-22T01:28:36.992Z,99.77
2023-08-22T01:28:46.991Z,99.77
2023-08-22T01:29:07.001Z,99.67
2023-08-22T01:29:16.988Z,99.72
2023-08-22T01:29:26.982Z,99.62
2023-08-22T01:29:36.995Z,99.62
2023-08-22T01:29:46.986Z,99.62
2023-08-22T01:29:56.985Z,99.72
2023-08-22T01:30:16.990Z,99.72
2023-08-22T01:30:26.991Z,99.67
2023-08-22T01:30:36.987Z,99.57
2023-08-22T01:30:46.995Z,99.62
2023-08-22T01:30:56.998Z,99.62
2023-08-22T01:31:07.015Z,99.57
2023-08-22T01:31:16.996Z,99.57
2023-08-22T01:31:27.002Z,99.57
2023-08-22T01:31:37.029Z,99.67
2023-08-22T01:31:47.031Z,99.77
2023-08-22T01:31:57.086Z,99.87
2023-08-22T01:32:16.993Z,99.92
2023-08-22T01:32:26.995Z,99.98
2023-08-22T01:32:36.995Z,99.99
2023-08-22T01:32:47.049Z,99.99
2023-08-22T01:32:57.035Z,99.98
2023-08-22T01:33:07.039Z,99.99
2023-08-22T01:33:17.041Z,99.99
2023-08-22T01:33:27.009Z,99.99
2023-08-22T01:33:36.997Z,99.99
2023-08-22T01:33:47.001Z,99.99
2023-08-22T01:33:57.002Z,99.99
2023-08-22T01:34:06.987Z,99.99
2023-08-22T01:34:17.007Z,99.99
2023-08-22T01:34:27.022Z,99.98
2023-08-22T01:34:37.010Z,99.98
2023-08-22T01:34:47.006Z,99.98
2023-08-22T01:34:57.007Z,99.99
2023-08-22T01:35:07.002Z,99.99
2023-08-22T01:35:17.022Z,99.99
2023-08-22T01:35:37.019Z,99.98
2023-08-22T01:35:47.011Z,99.99
2023-08-22T01:35:57.028Z,99.99
2023-08-22T01:36:07.027Z,99.99
2023-08-22T01:36:17.015Z,99.99
2023-08-22T01:36:27.023Z,99.99
2023-08-22T01:36:37.048Z,99.99
2023-08-22T01:36:47.073Z,99.99
2023-08-22T01:37:07.027Z,99.99
2023-08-22T01:37:17.021Z,99.99
2023-08-22T01:37:27.037Z,99.99
2023-08-22T01:37:37.073Z,99.98
2023-08-22T01:37:47.038Z,99.87
2023-08-22T01:37:57.018Z,99.77
2023-08-22T01:38:07.022Z,99.77
2023-08-22T01:38:17.018Z,99.77
2023-08-22T01:38:27.073Z,99.77
2023-08-22T01:38:37.040Z,99.77
2023-08-22T01:38:47.080Z,99.77
2023-08-22T01:38:57.074Z,99.67
2023-08-22T01:39:07.166Z,99.67
2023-08-22T01:39:17.027Z,99.72
2023-08-22T01:39:27.028Z,99.72
2023-08-22T01:39:37.055Z,99.92
2023-08-22T01:39:57.068Z,99.99
2023-08-22T01:40:07.027Z,99.99
2023-08-22T01:40:17.039Z,99.99
2023-08-22T01:40:27.039Z,99.99
2023-08-22T01:40:37.018Z,99.99
2023-08-22T01:40:47.060Z,99.99
2023-08-22T01:40:57.030Z,99.99
2023-08-22T01:41:07.030Z,99.99
2023-08-22T01:41:17.032Z,99.99
2023-08-22T01:41:27.034Z,99.99
2023-08-22T01:41:37.051Z,99.99
2023-08-22T01:41:47.058Z,99.99
2023-08-22T01:41:57.036Z,99.99
2023-08-22T01:42:07.042Z,99.99
2023-08-22T01:42:17.064Z,99.99
2023-08-22T01:42:27.038Z,99.99
2023-08-22T01:42:47.039Z,99.99
2023-08-22T01:42:57.036Z,99.99
2023-08-22T01:43:07.067Z,99.99
2023-08-22T01:43:17.049Z,99.99
2023-08-22T01:43:27.043Z,99.99
2023-08-22T01:43:37.044Z,99.99
2023-08-22T01:43:47.062Z,99.99
2023-08-22T01:43:57.047Z,99.99
2023-08-22T01:44:17.049Z,99.99
2023-08-22T01:44:27.062Z,99.99
2023-08-22T01:44:37.069Z,99.99
2023-08-22T01:44:47.050Z,99.99
2023-08-22T01:44:57.051Z,99.99
2023-08-22T01:45:07.064Z,99.99
2023-08-22T01:45:27.058Z,99.99
2023-08-22T01:45:37.149Z,99.99
2023-08-22T01:45:47.093Z,99.99
2023-08-22T01:45:57.093Z,99.99
2023-08-22T01:46:07.089Z,99.99
2023-08-22T01:46:17.102Z,99.99
2023-08-22T01:46:27.119Z,99.99
2023-08-22T01:46:37.073Z,99.99
2023-08-22T01:46:47.071Z,99.99
2023-08-22T01:46:57.061Z,99.99
2023-08-22T01:47:07.069Z,99.99
2023-08-22T01:47:17.058Z,99.99
2023-08-22T01:47:27.082Z,99.99
2023-08-22T01:47:47.129Z,99.99
2023-08-22T01:47:57.119Z,99.99
2023-08-22T01:48:07.117Z,99.99
2023-08-22T01:48:17.069Z,99.99
2023-08-22T01:48:27.064Z,99.99
2023-08-22T01:48:37.067Z,99.99
2023-08-22T01:48:47.067Z,99.99
2023-08-22T01:48:57.066Z,99.99
2023-08-22T01:49:07.071Z,99.99
2023-08-22T01:49:17.069Z,99.99
2023-08-22T01:49:27.073Z,99.99
2023-08-22T01:49:37.072Z,99.99
2023-08-22T01:49:47.076Z,99.99
2023-08-22T01:49:57.079Z,99.99
2023-08-22T01:50:07.087Z,99.99
2023-08-22T01:50:17.083Z,99.99
2023-08-22T01:50:27.082Z,99.99
2023-08-22T01:50:37.099Z,99.99
2023-08-22T01:50:47.082Z,99.99
2023-08-22T01:50:57.101Z,99.99
2023-08-22T01:51:07.088Z,99.99
2023-08-22T01:51:17.102Z,99.99
2023-08-22T01:51:27.077Z,99.99
2023-08-22T01:51:37.118Z,99.99
2023-08-22T01:51:47.099Z,99.99
2023-08-22T01:51:57.098Z,99.99
2023-08-22T01:52:07.105Z,99.99
2023-08-22T01:52:17.080Z,99.99
2023-08-22T01:52:27.087Z,99.99
2023-08-22T01:52:47.093Z,99.99
2023-08-22T01:52:57.101Z,99.99
2023-08-22T01:53:07.106Z,99.99
2023-08-22T01:53:17.108Z,99.99
2023-08-22T01:53:27.092Z,99.99
2023-08-22T01:53:37.093Z,99.99
2023-08-22T01:53:47.118Z,99.99
2023-08-22T01:54:07.097Z,99.99
2023-08-22T01:54:17.117Z,99.99
2023-08-22T01:54:27.104Z,99.99
2023-08-22T01:54:37.120Z,99.99
2023-08-22T01:54:47.113Z,99.99
2023-08-22T01:54:57.104Z,99.99
2023-08-22T01:55:07.102Z,99.99
2023-08-22T01:55:27.098Z,99.99
2023-08-22T01:55:37.099Z,99.99
2023-08-22T01:55:47.116Z,99.99
2023-08-22T01:55:57.108Z,99.99
2023-08-22T01:56:07.116Z,99.99
2023-08-22T01:56:17.099Z,99.99
2023-08-22T01:56:27.106Z,99.99
2023-08-22T01:56:37.134Z,99.99
2023-08-22T01:56:57.104Z,99.99
2023-08-22T01:57:07.118Z,99.99
2023-08-22T01:57:17.110Z,99.99
2023-08-22T01:57:27.112Z,99.99
2023-08-22T01:57:37.174Z,99.99
2023-08-22T01:57:47.109Z,99.99
2023-08-22T01:57:57.129Z,99.99
2023-08-22T01:58:07.112Z,99.99
2023-08-22T01:58:17.111Z,99.99
2023-08-22T01:58:27.127Z,99.99
2023-08-22T01:58:37.144Z,99.99
2023-08-22T01:58:47.112Z,99.99
2023-08-22T01:59:07.113Z,99.99
2023-08-22T01:59:17.133Z,99.99
2023-08-22T01:59:27.135Z,99.99
2023-08-22T01:59:37.135Z,99.99
2023-08-22T01:59:47.120Z,99.99
2023-08-22T01:59:57.126Z,99.99
2023-08-22T02:00:07.144Z,99.99
2023-08-22T02:00:17.132Z,99.99
2023-08-22T02:00:37.128Z,99.99
2023-08-22T02:00:47.128Z,99.99
2023-08-22T02:00:57.149Z,99.99
2023-08-22T02:01:07.174Z,99.99
2023-08-22T02:01:17.183Z,99.99
2023-08-22T02:01:27.170Z,99.99
2023-08-22T02:01:37.198Z,99.99
2023-08-22T02:01:47.165Z,99.99
2023-08-22T02:01:58.036Z,99.99
2023-08-22T02:02:07.130Z,99.99
2023-08-22T02:02:17.124Z,99.99
2023-08-22T02:02:27.163Z,99.99
2023-08-22T02:02:47.196Z,99.99
2023-08-22T02:02:57.199Z,99.99
2023-08-22T02:03:07.201Z,99.99
2023-08-22T02:03:17.239Z,99.99
2023-08-22T02:03:27.242Z,99.99
2023-08-22T02:03:37.283Z,99.99
2023-08-22T02:03:47.228Z,99.99
2023-08-22T02:03:57.184Z,99.99
2023-08-22T02:04:07.136Z,99.99
2023-08-22T02:04:17.147Z,99.99
2023-08-22T02:04:27.136Z,99.99
2023-08-22T02:04:37.158Z,99.99
2023-08-22T02:04:47.143Z,99.99
2023-08-22T02:05:07.166Z,99.99
2023-08-22T02:05:17.135Z,99.99
2023-08-22T02:05:27.140Z,99.99
2023-08-22T02:05:40.175Z,99.99
2023-08-22T02:05:47.146Z,99.99
2023-08-22T02:05:57.161Z,99.99
2023-08-22T02:06:07.153Z,99.99
2023-08-22T02:06:17.149Z,99.99
2023-08-22T02:06:27.185Z,99.99
2023-08-22T02:06:37.157Z,99.99
2023-08-22T02:06:47.157Z,99.99
2023-08-22T02:07:07.156Z,99.99
2023-08-22T02:07:17.156Z,99.99
2023-08-22T02:07:27.173Z,99.99
2023-08-22T02:07:37.161Z,99.99
2023-08-22T02:07:47.145Z,99.99
2023-08-22T02:07:57.149Z,99.99
2023-08-22T02:08:07.179Z,99.99
2023-08-22T02:08:17.153Z,99.99
2023-08-22T02:08:37.181Z,99.99
2023-08-22T02:08:47.152Z,99.99
2023-08-22T02:08:57.159Z,99.99
2023-08-22T02:09:07.152Z,99.99
2023-08-22T02:09:17.166Z,99.99
2023-08-22T02:09:27.156Z,99.99
2023-08-22T02:09:47.180Z,99.99
2023-08-22T02:09:57.177Z,99.99
2023-08-22T02:10:07.164Z,99.99
2023-08-22T02:10:17.160Z,99.99
2023-08-22T02:10:27.163Z,99.99
2023-08-22T02:10:37.164Z,99.99
2023-08-22T02:10:57.179Z,99.99
2023-08-22T02:11:07.175Z,99.99
2023-08-22T02:11:17.174Z,99.99
2023-08-22T02:11:27.167Z,99.99
2023-08-22T02:11:37.180Z,99.99
2023-08-22T02:11:47.168Z,99.99
2023-08-22T02:11:57.174Z,99.99
2023-08-22T02:12:07.181Z,99.99
2023-08-22T02:12:17.180Z,99.99
2023-08-22T02:12:27.183Z,99.99
2023-08-22T02:12:47.182Z,99.99
2023-08-22T02:12:57.176Z,99.99
2023-08-22T02:13:07.169Z,99.99
2023-08-22T02:13:17.176Z,99.99
2023-08-22T02:13:27.183Z,99.99
2023-08-22T02:13:37.174Z,99.99
2023-08-22T02:13:47.174Z,99.99
2023-08-22T02:13:57.182Z,99.99
2023-08-22T02:14:17.185Z,99.99
2023-08-22T02:14:27.190Z,99.99
2023-08-22T02:14:37.184Z,99.99
2023-08-22T02:14:47.184Z,99.99
2023-08-22T02:14:57.178Z,99.99
2023-08-22T02:15:07.177Z,99.99
2023-08-22T02:15:17.182Z,99.99
2023-08-22T02:15:37.230Z,99.99
2023-08-22T02:15:47.217Z,99.99
2023-08-22T02:15:57.229Z,99.99
2023-08-22T02:16:07.224Z,99.99
2023-08-22T02:16:17.202Z,99.99
2023-08-22T02:16:27.188Z,99.99
2023-08-22T02:16:37.207Z,99.99
2023-08-22T02:16:47.194Z,99.99
2023-08-22T02:16:57.202Z,99.99
2023-08-22T02:17:17.201Z,99.99
2023-08-22T02:17:27.224Z,99.99
2023-08-22T02:17:37.224Z,99.99
2023-08-22T02:17:47.215Z,99.99
2023-08-22T02:17:57.237Z,99.99
2023-08-22T02:18:07.225Z,99.99
2023-08-22T02:18:17.191Z,99.99
2023-08-22T02:18:27.191Z,99.99
2023-08-22T02:18:37.196Z,99.99
2023-08-22T02:18:47.209Z,99.99
2023-08-22T02:18:57.200Z,99.99
2023-08-22T02:19:07.295Z,99.99
2023-08-22T02:19:17.210Z,99.99
2023-08-22T02:19:27.199Z,99.99
2023-08-22T02:19:37.204Z,99.99
2023-08-22T02:19:47.214Z,99.99
2023-08-22T02:19:57.205Z,99.99
2023-08-22T02:20:17.214Z,99.99
2023-08-22T02:20:27.204Z,99.99
2023-08-22T02:20:37.206Z,99.99